sensor_id;sensor_type;location;lat;lon;timestamp;temperature;humidity
45765;DHT22;31474;45.332;10.230;2023-06-10T00:01:29;23.80;99.90
45765;DHT22;31474;45.332;10.230;2023-06-10T00:03:55;23.80;99.90
45765;DHT22;31474;45.332;10.230;2023-06-10T00:06:21;23.80;99.90
45765;DHT22;31474;45.332;10.230;2023-06-10T00:08:50;23.80;99.90
45765;DHT22;31474;45.332;10.230;2023-06-10T00:11:16;23.80;99.90
45765;DHT22;31474;45.332;10.230;2023-06-10T00:13:41;23.80;99.90
45765;DHT22;31474;45.332;10.230;2023-06-10T00:16:07;23.70;99.90
45765;DHT22;31474;45.332;10.230;2023-06-10T00:18:32;23.70;99.90
45765;DHT22;31474;45.332;10.230;2023-06-10T00:20:58;23.70;99.90
45765;DHT22;31474;45.332;10.230;2023-06-10T00:23:30;23.60;99.90
45765;DHT22;31474;45.332;10.230;2023-06-10T00:26:03;23.60;99.90
45765;DHT22;31474;45.332;10.230;2023-06-10T00:28:30;23.60;99.90
45765;DHT22;31474;45.332;10.230;2023-06-10T00:30:55;23.60;99.90
45765;DHT22;31474;45.332;10.230;2023-06-10T00:33:22;23.60;99.90
45765;DHT22;31474;45.332;10.230;2023-06-10T00:35:48;23.60;99.90
45765;DHT22;31474;45.332;10.230;2023-06-10T00:38:14;23.60;99.90
45765;DHT22;31474;45.332;10.230;2023-06-10T00:40:42;23.60;99.90
45765;DHT22;31474;45.332;10.230;2023-06-10T00:43:08;23.60;99.90
45765;DHT22;31474;45.332;10.230;2023-06-10T00:45:34;23.60;99.90
45765;DHT22;31474;45.332;10.230;2023-06-10T00:48:00;23.60;99.90
45765;DHT22;31474;45.332;10.230;2023-06-10T00:50:27;23.60;99.90
45765;DHT22;31474;45.332;10.230;2023-06-10T00:52:54;23.50;99.90
45765;DHT22;31474;45.332;10.230;2023-06-10T00:55:20;23.60;99.90
45765;DHT22;31474;45.332;10.230;2023-06-10T00:57:46;23.50;99.90
45765;DHT22;31474;45.332;10.230;2023-06-10T01:00:14;23.40;99.90
45765;DHT22;31474;45.332;10.230;2023-06-10T01:02:42;23.50;99.90
45765;DHT22;31474;45.332;10.230;2023-06-10T01:05:10;23.40;99.90
45765;DHT22;31474;45.332;10.230;2023-06-10T01:07:43;23.40;99.90
45765;DHT22;31474;45.332;10.230;2023-06-10T01:10:32;23.40;99.90
45765;DHT22;31474;45.332;10.230;2023-06-10T01:13:03;23.40;99.90
45765;DHT22;31474;45.332;10.230;2023-06-10T01:15:32;23.40;99.90
45765;DHT22;31474;45.332;10.230;2023-06-10T01:18:03;23.40;99.90
45765;DHT22;31474;45.332;10.230;2023-06-10T01:20:31;23.40;99.90
45765;DHT22;31474;45.332;10.230;2023-06-10T01:23:01;23.40;99.90
45765;DHT22;31474;45.332;10.230;2023-06-10T01:25:29;23.40;99.90
45765;DHT22;31474;45.332;10.230;2023-06-10T01:30:39;23.40;99.90
45765;DHT22;31474;45.332;10.230;2023-06-10T01:33:09;23.40;99.90
45765;DHT22;31474;45.332;10.230;2023-06-10T01:35:37;23.40;99.90
45765;DHT22;31474;45.332;10.230;2023-06-10T01:38:04;23.30;99.90
45765;DHT22;31474;45.332;10.230;2023-06-10T01:40:31;23.30;99.90
45765;DHT22;31474;45.332;10.230;2023-06-10T01:42:57;23.30;99.90
45765;DHT22;31474;45.332;10.230;2023-06-10T01:45:23;23.30;99.90
45765;DHT22;31474;45.332;10.230;2023-06-10T01:47:48;23.30;99.90
45765;DHT22;31474;45.332;10.230;2023-06-10T01:50:14;23.20;99.90
45765;DHT22;31474;45.332;10.230;2023-06-10T01:52:41;23.20;99.90
45765;DHT22;31474;45.332;10.230;2023-06-10T01:55:07;23.20;99.90
45765;DHT22;31474;45.332;10.230;2023-06-10T01:57:33;23.20;99.90
45765;DHT22;31474;45.332;10.230;2023-06-10T01:59:58;23.20;99.90
45765;DHT22;31474;45.332;10.230;2023-06-10T02:02:24;23.20;99.90
45765;DHT22;31474;45.332;10.230;2023-06-10T02:04:50;23.30;99.90
45765;DHT22;31474;45.332;10.230;2023-06-10T02:07:16;23.20;99.90
45765;DHT22;31474;45.332;10.230;2023-06-10T02:09:41;23.20;99.90
45765;DHT22;31474;45.332;10.230;2023-06-10T02:12:07;23.10;99.90
45765;DHT22;31474;45.332;10.230;2023-06-10T02:14:33;23.20;99.90
45765;DHT22;31474;45.332;10.230;2023-06-10T02:16:59;23.10;99.90
45765;DHT22;31474;45.332;10.230;2023-06-10T02:19:25;23.20;99.90
45765;DHT22;31474;45.332;10.230;2023-06-10T02:21:52;23.20;99.90
45765;DHT22;31474;45.332;10.230;2023-06-10T02:24:18;23.20;99.90
45765;DHT22;31474;45.332;10.230;2023-06-10T02:26:43;23.10;99.90
45765;DHT22;31474;45.332;10.230;2023-06-10T02:29:09;23.10;99.90
45765;DHT22;31474;45.332;10.230;2023-06-10T02:31:35;23.10;99.90
45765;DHT22;31474;45.332;10.230;2023-06-10T02:34:01;23.20;99.90
45765;DHT22;31474;45.332;10.230;2023-06-10T02:36:28;23.10;99.90
45765;DHT22;31474;45.332;10.230;2023-06-10T02:38:54;23.20;99.90
45765;DHT22;31474;45.332;10.230;2023-06-10T02:41:19;23.10;99.90
45765;DHT22;31474;45.332;10.230;2023-06-10T02:43:47;23.10;99.90
45765;DHT22;31474;45.332;10.230;2023-06-10T02:46:13;23.10;99.90
45765;DHT22;31474;45.332;10.230;2023-06-10T02:48:43;23.00;99.90
45765;DHT22;31474;45.332;10.230;2023-06-10T02:51:11;23.00;99.90
45765;DHT22;31474;45.332;10.230;2023-06-10T02:53:37;23.00;99.90
45765;DHT22;31474;45.332;10.230;2023-06-10T02:56:03;23.10;99.90
45765;DHT22;31474;45.332;10.230;2023-06-10T02:58:29;23.00;99.90
45765;DHT22;31474;45.332;10.230;2023-06-10T03:00:55;23.00;99.90
45765;DHT22;31474;45.332;10.230;2023-06-10T03:03:20;23.00;99.90
45765;DHT22;31474;45.332;10.230;2023-06-10T03:05:48;23.00;99.90
45765;DHT22;31474;45.332;10.230;2023-06-10T03:08:14;23.00;99.90
45765;DHT22;31474;45.332;10.230;2023-06-10T03:10:39;23.00;99.90
45765;DHT22;31474;45.332;10.230;2023-06-10T03:13:05;23.00;99.90
45765;DHT22;31474;45.332;10.230;2023-06-10T03:15:31;23.00;99.90
45765;DHT22;31474;45.332;10.230;2023-06-10T03:17:59;23.00;99.90
45765;DHT22;31474;45.332;10.230;2023-06-10T03:20:25;23.00;99.90
45765;DHT22;31474;45.332;10.230;2023-06-10T03:22:53;23.00;99.90
45765;DHT22;31474;45.332;10.230;2023-06-10T03:25:18;23.00;99.90
45765;DHT22;31474;45.332;10.230;2023-06-10T03:27:46;23.00;99.90
45765;DHT22;31474;45.332;10.230;2023-06-10T03:30:13;22.90;99.90
45765;DHT22;31474;45.332;10.230;2023-06-10T03:32:39;22.90;99.90
45765;DHT22;31474;45.332;10.230;2023-06-10T03:35:05;23.00;99.90
45765;DHT22;31474;45.332;10.230;2023-06-10T03:37:30;22.90;99.90
45765;DHT22;31474;45.332;10.230;2023-06-10T03:39:56;22.90;99.90
45765;DHT22;31474;45.332;10.230;2023-06-10T03:42:22;22.90;99.90
45765;DHT22;31474;45.332;10.230;2023-06-10T03:44:47;22.90;99.90
45765;DHT22;31474;45.332;10.230;2023-06-10T03:47:13;22.90;99.90
45765;DHT22;31474;45.332;10.230;2023-06-10T03:49:39;22.90;99.90
45765;DHT22;31474;45.332;10.230;2023-06-10T03:52:06;22.90;99.90
45765;DHT22;31474;45.332;10.230;2023-06-10T03:54:32;22.90;99.90
45765;DHT22;31474;45.332;10.230;2023-06-10T03:56:59;22.90;99.90
45765;DHT22;31474;45.332;10.230;2023-06-10T03:59:25;22.90;99.90
45765;DHT22;31474;45.332;10.230;2023-06-10T04:01:51;22.90;99.90
45765;DHT22;31474;45.332;10.230;2023-06-10T04:04:17;22.90;99.90
45765;DHT22;31474;45.332;10.230;2023-06-10T04:06:43;22.90;99.90
45765;DHT22;31474;45.332;10.230;2023-06-10T04:09:10;22.90;99.90
45765;DHT22;31474;45.332;10.230;2023-06-10T04:11:36;22.80;99.90
45765;DHT22;31474;45.332;10.230;2023-06-10T04:14:02;22.90;99.90
45765;DHT22;31474;45.332;10.230;2023-06-10T04:16:28;22.90;99.90
45765;DHT22;31474;45.332;10.230;2023-06-10T04:18:54;22.80;99.90
45765;DHT22;31474;45.332;10.230;2023-06-10T04:21:20;22.80;99.90
45765;DHT22;31474;45.332;10.230;2023-06-10T04:23:45;22.80;99.90
45765;DHT22;31474;45.332;10.230;2023-06-10T04:26:11;22.80;99.90
45765;DHT22;31474;45.332;10.230;2023-06-10T04:28:38;22.80;99.90
45765;DHT22;31474;45.332;10.230;2023-06-10T04:31:03;22.80;99.90
45765;DHT22;31474;45.332;10.230;2023-06-10T04:33:30;22.80;99.90
45765;DHT22;31474;45.332;10.230;2023-06-10T04:35:55;22.90;99.90
45765;DHT22;31474;45.332;10.230;2023-06-10T04:38:21;22.90;99.90
45765;DHT22;31474;45.332;10.230;2023-06-10T04:40:47;22.90;99.90
45765;DHT22;31474;45.332;10.230;2023-06-10T04:43:13;22.90;99.90
45765;DHT22;31474;45.332;10.230;2023-06-10T04:45:39;23.00;99.90
45765;DHT22;31474;45.332;10.230;2023-06-10T04:48:05;23.00;99.90
45765;DHT22;31474;45.332;10.230;2023-06-10T04:50:30;23.00;99.90
45765;DHT22;31474;45.332;10.230;2023-06-10T04:52:58;23.00;99.90
45765;DHT22;31474;45.332;10.230;2023-06-10T04:55:24;23.00;99.90
45765;DHT22;31474;45.332;10.230;2023-06-10T04:57:50;23.00;99.90
45765;DHT22;31474;45.332;10.230;2023-06-10T05:00:17;23.00;99.90
45765;DHT22;31474;45.332;10.230;2023-06-10T05:02:43;23.00;99.90
45765;DHT22;31474;45.332;10.230;2023-06-10T05:05:08;23.00;99.90
45765;DHT22;31474;45.332;10.230;2023-06-10T05:07:34;23.10;99.90
45765;DHT22;31474;45.332;10.230;2023-06-10T05:10:00;23.10;99.90
45765;DHT22;31474;45.332;10.230;2023-06-10T05:12:26;23.10;99.90
45765;DHT22;31474;45.332;10.230;2023-06-10T05:14:51;23.10;99.90
45765;DHT22;31474;45.332;10.230;2023-06-10T05:17:17;23.20;99.90
45765;DHT22;31474;45.332;10.230;2023-06-10T05:19:43;23.20;99.90
45765;DHT22;31474;45.332;10.230;2023-06-10T05:22:09;23.10;99.90
45765;DHT22;31474;45.332;10.230;2023-06-10T05:24:35;23.10;99.90
45765;DHT22;31474;45.332;10.230;2023-06-10T05:27:01;23.10;99.90
45765;DHT22;31474;45.332;10.230;2023-06-10T05:29:26;23.10;99.90
45765;DHT22;31474;45.332;10.230;2023-06-10T05:31:52;23.00;99.90
45765;DHT22;31474;45.332;10.230;2023-06-10T05:34:18;23.00;99.90
45765;DHT22;31474;45.332;10.230;2023-06-10T05:36:43;23.00;99.90
45765;DHT22;31474;45.332;10.230;2023-06-10T05:39:10;23.00;99.90
45765;DHT22;31474;45.332;10.230;2023-06-10T05:41:35;23.00;99.90
45765;DHT22;31474;45.332;10.230;2023-06-10T05:44:01;23.00;99.90
45765;DHT22;31474;45.332;10.230;2023-06-10T05:46:28;23.00;99.90
45765;DHT22;31474;45.332;10.230;2023-06-10T05:48:54;23.00;99.90
45765;DHT22;31474;45.332;10.230;2023-06-10T05:51:20;23.00;99.90
45765;DHT22;31474;45.332;10.230;2023-06-10T05:53:45;23.00;99.90
45765;DHT22;31474;45.332;10.230;2023-06-10T05:56:12;23.00;99.90
45765;DHT22;31474;45.332;10.230;2023-06-10T05:58:38;22.90;99.90
45765;DHT22;31474;45.332;10.230;2023-06-10T06:01:04;22.90;99.90
45765;DHT22;31474;45.332;10.230;2023-06-10T06:03:29;22.90;99.90
45765;DHT22;31474;45.332;10.230;2023-06-10T06:05:55;22.90;99.90
45765;DHT22;31474;45.332;10.230;2023-06-10T06:08:21;22.90;99.90
45765;DHT22;31474;45.332;10.230;2023-06-10T06:10:47;22.90;99.90
45765;DHT22;31474;45.332;10.230;2023-06-10T06:13:15;22.80;99.90
45765;DHT22;31474;45.332;10.230;2023-06-10T06:15:41;22.80;99.90
45765;DHT22;31474;45.332;10.230;2023-06-10T06:18:06;22.90;99.90
45765;DHT22;31474;45.332;10.230;2023-06-10T06:20:32;22.90;99.90
45765;DHT22;31474;45.332;10.230;2023-06-10T06:22:58;22.90;99.90
45765;DHT22;31474;45.332;10.230;2023-06-10T06:25:23;22.80;99.90
45765;DHT22;31474;45.332;10.230;2023-06-10T06:27:49;22.80;99.90
45765;DHT22;31474;45.332;10.230;2023-06-10T06:30:15;22.90;99.90
45765;DHT22;31474;45.332;10.230;2023-06-10T06:32:40;22.90;99.90
45765;DHT22;31474;45.332;10.230;2023-06-10T06:35:06;22.90;99.90
45765;DHT22;31474;45.332;10.230;2023-06-10T06:37:33;22.90;99.90
45765;DHT22;31474;45.332;10.230;2023-06-10T06:40:00;22.90;99.90
45765;DHT22;31474;45.332;10.230;2023-06-10T06:42:25;22.90;99.90
45765;DHT22;31474;45.332;10.230;2023-06-10T06:44:51;22.90;99.90
45765;DHT22;31474;45.332;10.230;2023-06-10T06:47:17;22.90;99.90
45765;DHT22;31474;45.332;10.230;2023-06-10T06:49:46;22.90;99.90
45765;DHT22;31474;45.332;10.230;2023-06-10T06:52:13;23.00;99.90
45765;DHT22;31474;45.332;10.230;2023-06-10T06:54:39;23.00;99.90
45765;DHT22;31474;45.332;10.230;2023-06-10T06:57:05;23.00;99.90
45765;DHT22;31474;45.332;10.230;2023-06-10T06:59:31;23.10;99.90
45765;DHT22;31474;45.332;10.230;2023-06-10T07:01:56;23.10;99.90
45765;DHT22;31474;45.332;10.230;2023-06-10T07:04:22;23.20;99.90
45765;DHT22;31474;45.332;10.230;2023-06-10T07:06:48;23.10;99.90
45765;DHT22;31474;45.332;10.230;2023-06-10T07:09:14;23.10;99.90
45765;DHT22;31474;45.332;10.230;2023-06-10T07:11:39;23.10;99.90
45765;DHT22;31474;45.332;10.230;2023-06-10T07:14:06;23.20;99.90
45765;DHT22;31474;45.332;10.230;2023-06-10T07:16:31;23.20;99.90
45765;DHT22;31474;45.332;10.230;2023-06-10T07:18:57;23.20;99.90
45765;DHT22;31474;45.332;10.230;2023-06-10T07:21:23;23.20;99.90
45765;DHT22;31474;45.332;10.230;2023-06-10T07:23:49;23.20;99.90
45765;DHT22;31474;45.332;10.230;2023-06-10T07:26:17;23.30;99.90
45765;DHT22;31474;45.332;10.230;2023-06-10T07:28:43;23.30;99.90
45765;DHT22;31474;45.332;10.230;2023-06-10T07:31:09;23.30;99.90
45765;DHT22;31474;45.332;10.230;2023-06-10T07:33:35;23.20;99.90
45765;DHT22;31474;45.332;10.230;2023-06-10T07:36:02;23.20;99.90
45765;DHT22;31474;45.332;10.230;2023-06-10T07:38:27;23.20;99.90
45765;DHT22;31474;45.332;10.230;2023-06-10T07:40:53;23.10;99.90
45765;DHT22;31474;45.332;10.230;2023-06-10T07:43:19;23.00;99.90
45765;DHT22;31474;45.332;10.230;2023-06-10T07:45:44;23.00;99.90
45765;DHT22;31474;45.332;10.230;2023-06-10T07:48:10;23.00;99.90
45765;DHT22;31474;45.332;10.230;2023-06-10T07:50:36;23.10;99.90
45765;DHT22;31474;45.332;10.230;2023-06-10T07:53:02;23.10;99.90
45765;DHT22;31474;45.332;10.230;2023-06-10T07:55:28;23.10;99.90
45765;DHT22;31474;45.332;10.230;2023-06-10T07:57:54;23.10;99.90
45765;DHT22;31474;45.332;10.230;2023-06-10T08:00:20;23.20;99.90
45765;DHT22;31474;45.332;10.230;2023-06-10T08:02:46;23.30;99.90
45765;DHT22;31474;45.332;10.230;2023-06-10T08:05:12;23.30;99.90
45765;DHT22;31474;45.332;10.230;2023-06-10T08:07:41;23.40;99.90
45765;DHT22;31474;45.332;10.230;2023-06-10T08:10:07;23.40;99.90
45765;DHT22;31474;45.332;10.230;2023-06-10T08:12:33;23.50;99.90
45765;DHT22;31474;45.332;10.230;2023-06-10T08:14:59;23.40;99.90
45765;DHT22;31474;45.332;10.230;2023-06-10T08:17:25;23.40;99.90
45765;DHT22;31474;45.332;10.230;2023-06-10T08:19:51;23.50;99.90
45765;DHT22;31474;45.332;10.230;2023-06-10T08:22:17;23.60;99.90
45765;DHT22;31474;45.332;10.230;2023-06-10T08:24:42;23.60;99.90
45765;DHT22;31474;45.332;10.230;2023-06-10T08:27:08;23.70;99.90
45765;DHT22;31474;45.332;10.230;2023-06-10T08:29:34;23.80;99.90
45765;DHT22;31474;45.332;10.230;2023-06-10T08:32:00;23.80;99.90
45765;DHT22;31474;45.332;10.230;2023-06-10T08:34:25;23.90;99.90
45765;DHT22;31474;45.332;10.230;2023-06-10T08:36:51;23.90;99.90
45765;DHT22;31474;45.332;10.230;2023-06-10T08:39:19;23.90;99.90
45765;DHT22;31474;45.332;10.230;2023-06-10T08:42:04;23.90;99.90
45765;DHT22;31474;45.332;10.230;2023-06-10T08:44:31;24.00;99.90
45765;DHT22;31474;45.332;10.230;2023-06-10T08:47:04;23.90;99.90
45765;DHT22;31474;45.332;10.230;2023-06-10T08:49:34;24.00;99.90
45765;DHT22;31474;45.332;10.230;2023-06-10T08:52:02;24.10;99.90
45765;DHT22;31474;45.332;10.230;2023-06-10T08:54:32;24.20;99.90
45765;DHT22;31474;45.332;10.230;2023-06-10T08:57:02;24.30;99.90
45765;DHT22;31474;45.332;10.230;2023-06-10T08:59:29;24.40;99.90
45765;DHT22;31474;45.332;10.230;2023-06-10T09:01:55;24.30;99.90
45765;DHT22;31474;45.332;10.230;2023-06-10T09:04:20;24.40;99.90
45765;DHT22;31474;45.332;10.230;2023-06-10T09:06:49;24.50;99.90
45765;DHT22;31474;45.332;10.230;2023-06-10T09:09:14;24.40;99.90
45765;DHT22;31474;45.332;10.230;2023-06-10T09:11:42;24.50;99.90
45765;DHT22;31474;45.332;10.230;2023-06-10T09:14:08;24.40;99.90
45765;DHT22;31474;45.332;10.230;2023-06-10T09:16:34;24.50;99.90
45765;DHT22;31474;45.332;10.230;2023-06-10T09:18:59;24.50;99.90
45765;DHT22;31474;45.332;10.230;2023-06-10T09:21:26;24.50;99.90
45765;DHT22;31474;45.332;10.230;2023-06-10T09:23:51;24.50;99.90
45765;DHT22;31474;45.332;10.230;2023-06-10T09:26:18;24.50;99.90
45765;DHT22;31474;45.332;10.230;2023-06-10T09:28:49;24.50;99.90
45765;DHT22;31474;45.332;10.230;2023-06-10T09:31:16;24.50;99.90
45765;DHT22;31474;45.332;10.230;2023-06-10T09:33:44;24.60;99.90
45765;DHT22;31474;45.332;10.230;2023-06-10T09:36:10;24.50;99.90
45765;DHT22;31474;45.332;10.230;2023-06-10T09:38:36;24.50;99.90
45765;DHT22;31474;45.332;10.230;2023-06-10T09:41:03;24.60;99.90
45765;DHT22;31474;45.332;10.230;2023-06-10T09:43:43;24.60;99.90
45765;DHT22;31474;45.332;10.230;2023-06-10T09:46:19;24.70;99.90
45765;DHT22;31474;45.332;10.230;2023-06-10T09:48:47;24.70;99.90
45765;DHT22;31474;45.332;10.230;2023-06-10T09:51:16;24.70;99.90
45765;DHT22;31474;45.332;10.230;2023-06-10T09:53:49;24.70;99.90
45765;DHT22;31474;45.332;10.230;2023-06-10T09:56:16;24.70;99.90
45765;DHT22;31474;45.332;10.230;2023-06-10T09:58:41;24.80;99.90
45765;DHT22;31474;45.332;10.230;2023-06-10T10:01:10;24.90;99.90
45765;DHT22;31474;45.332;10.230;2023-06-10T10:03:49;24.90;99.90
45765;DHT22;31474;45.332;10.230;2023-06-10T10:06:17;25.00;99.90
45765;DHT22;31474;45.332;10.230;2023-06-10T10:08:43;24.90;99.90
45765;DHT22;31474;45.332;10.230;2023-06-10T10:11:10;25.00;99.90
45765;DHT22;31474;45.332;10.230;2023-06-10T10:13:37;24.90;99.90
45765;DHT22;31474;45.332;10.230;2023-06-10T10:16:26;24.90;99.90
45765;DHT22;31474;45.332;10.230;2023-06-10T10:18:55;24.90;99.90
45765;DHT22;31474;45.332;10.230;2023-06-10T10:21:25;24.80;99.90
45765;DHT22;31474;45.332;10.230;2023-06-10T10:24:40;24.90;99.90
45765;DHT22;31474;45.332;10.230;2023-06-10T10:26:48;24.90;99.90
45765;DHT22;31474;45.332;10.230;2023-06-10T10:29:20;24.80;99.90
45765;DHT22;31474;45.332;10.230;2023-06-10T10:31:51;24.80;99.90
45765;DHT22;31474;45.332;10.230;2023-06-10T10:34:26;24.80;99.90
45765;DHT22;31474;45.332;10.230;2023-06-10T10:36:55;24.80;99.90
45765;DHT22;31474;45.332;10.230;2023-06-10T10:39:22;25.00;99.90
45765;DHT22;31474;45.332;10.230;2023-06-10T10:41:48;25.00;99.90
45765;DHT22;31474;45.332;10.230;2023-06-10T10:44:15;25.00;99.90
45765;DHT22;31474;45.332;10.230;2023-06-10T10:46:51;25.10;99.90
45765;DHT22;31474;45.332;10.230;2023-06-10T10:49:20;25.20;99.90
45765;DHT22;31474;45.332;10.230;2023-06-10T10:51:58;25.30;99.90
45765;DHT22;31474;45.332;10.230;2023-06-10T10:54:31;25.40;99.90
45765;DHT22;31474;45.332;10.230;2023-06-10T10:59:51;25.20;99.90
45765;DHT22;31474;45.332;10.230;2023-06-10T11:02:42;25.00;99.90
45765;DHT22;31474;45.332;10.230;2023-06-10T11:05:13;24.90;99.90
45765;DHT22;31474;45.332;10.230;2023-06-10T11:07:40;25.00;99.90
45765;DHT22;31474;45.332;10.230;2023-06-10T11:10:16;25.00;99.90
45765;DHT22;31474;45.332;10.230;2023-06-10T11:15:27;25.00;99.90
45765;DHT22;31474;45.332;10.230;2023-06-10T11:29:09;25.30;99.90
45765;DHT22;31474;45.332;10.230;2023-06-10T11:31:40;25.40;99.90
45765;DHT22;31474;45.332;10.230;2023-06-10T11:34:07;25.40;99.90
45765;DHT22;31474;45.332;10.230;2023-06-10T11:36:43;25.40;99.90
45765;DHT22;31474;45.332;10.230;2023-06-10T11:39:11;25.40;99.90
45765;DHT22;31474;45.332;10.230;2023-06-10T11:41:37;25.60;99.90
45765;DHT22;31474;45.332;10.230;2023-06-10T11:44:08;25.70;99.90
45765;DHT22;31474;45.332;10.230;2023-06-10T11:46:34;25.90;99.90
45765;DHT22;31474;45.332;10.230;2023-06-10T11:49:01;26.00;99.90
45765;DHT22;31474;45.332;10.230;2023-06-10T11:51:39;26.10;99.90
45765;DHT22;31474;45.332;10.230;2023-06-10T11:54:08;26.20;99.90
45765;DHT22;31474;45.332;10.230;2023-06-10T11:56:34;26.30;99.90
45765;DHT22;31474;45.332;10.230;2023-06-10T11:59:02;26.40;99.90
45765;DHT22;31474;45.332;10.230;2023-06-10T12:01:37;26.40;99.90
45765;DHT22;31474;45.332;10.230;2023-06-10T12:04:05;26.30;99.90
45765;DHT22;31474;45.332;10.230;2023-06-10T12:09:22;26.70;99.90
45765;DHT22;31474;45.332;10.230;2023-06-10T12:12:06;26.90;99.90
45765;DHT22;31474;45.332;10.230;2023-06-10T12:14:58;27.00;99.90
45765;DHT22;31474;45.332;10.230;2023-06-10T12:17:44;26.90;99.90
45765;DHT22;31474;45.332;10.230;2023-06-10T12:20:25;26.90;99.90
45765;DHT22;31474;45.332;10.230;2023-06-10T12:22:51;27.00;99.90
45765;DHT22;31474;45.332;10.230;2023-06-10T12:25:16;27.00;99.90
45765;DHT22;31474;45.332;10.230;2023-06-10T12:27:53;27.20;99.90
45765;DHT22;31474;45.332;10.230;2023-06-10T12:30:20;27.20;99.90
45765;DHT22;31474;45.332;10.230;2023-06-10T12:32:46;27.30;99.90
45765;DHT22;31474;45.332;10.230;2023-06-10T12:35:18;27.40;99.90
45765;DHT22;31474;45.332;10.230;2023-06-10T12:37:59;27.50;99.90
45765;DHT22;31474;45.332;10.230;2023-06-10T12:40:33;27.60;99.90
45765;DHT22;31474;45.332;10.230;2023-06-10T12:43:00;27.50;99.90
45765;DHT22;31474;45.332;10.230;2023-06-10T12:45:37;27.50;99.90
45765;DHT22;31474;45.332;10.230;2023-06-10T12:50:40;27.20;99.90
45765;DHT22;31474;45.332;10.230;2023-06-10T12:53:06;27.10;99.90
45765;DHT22;31474;45.332;10.230;2023-06-10T12:55:32;27.30;99.90
45765;DHT22;31474;45.332;10.230;2023-06-10T12:57:59;27.50;99.90
45765;DHT22;31474;45.332;10.230;2023-06-10T13:00:25;27.50;99.90
45765;DHT22;31474;45.332;10.230;2023-06-10T13:02:53;27.60;99.90
45765;DHT22;31474;45.332;10.230;2023-06-10T13:05:19;27.70;99.90
45765;DHT22;31474;45.332;10.230;2023-06-10T13:07:46;27.80;99.90
45765;DHT22;31474;45.332;10.230;2023-06-10T13:10:16;27.90;99.90
45765;DHT22;31474;45.332;10.230;2023-06-10T13:12:45;27.80;99.90
45765;DHT22;31474;45.332;10.230;2023-06-10T13:15:12;27.70;99.50
45765;DHT22;31474;45.332;10.230;2023-06-10T13:17:38;27.60;99.60
45765;DHT22;31474;45.332;10.230;2023-06-10T13:20:06;27.60;99.00
45765;DHT22;31474;45.332;10.230;2023-06-10T13:22:32;27.40;98.70
45765;DHT22;31474;45.332;10.230;2023-06-10T13:25:04;27.40;98.90
45765;DHT22;31474;45.332;10.230;2023-06-10T13:27:32;27.30;97.30
45765;DHT22;31474;45.332;10.230;2023-06-10T13:29:58;27.30;98.20
45765;DHT22;31474;45.332;10.230;2023-06-10T13:32:24;27.10;98.50
45765;DHT22;31474;45.332;10.230;2023-06-10T13:34:49;27.10;99.10
45765;DHT22;31474;45.332;10.230;2023-06-10T13:37:15;27.10;99.00
45765;DHT22;31474;45.332;10.230;2023-06-10T13:39:43;27.00;99.60
45765;DHT22;31474;45.332;10.230;2023-06-10T13:42:09;27.00;99.40
45765;DHT22;31474;45.332;10.230;2023-06-10T13:44:34;27.00;99.90
45765;DHT22;31474;45.332;10.230;2023-06-10T13:47:02;26.90;99.70
45765;DHT22;31474;45.332;10.230;2023-06-10T13:49:28;27.00;99.90
45765;DHT22;31474;45.332;10.230;2023-06-10T13:51:54;27.20;99.90
45765;DHT22;31474;45.332;10.230;2023-06-10T13:54:19;27.40;99.90
45765;DHT22;31474;45.332;10.230;2023-06-10T13:56:46;27.60;99.60
45765;DHT22;31474;45.332;10.230;2023-06-10T13:59:12;27.70;99.90
45765;DHT22;31474;45.332;10.230;2023-06-10T14:01:37;27.70;99.20
45765;DHT22;31474;45.332;10.230;2023-06-10T14:04:04;27.80;99.20
45765;DHT22;31474;45.332;10.230;2023-06-10T14:06:29;27.80;99.00
45765;DHT22;31474;45.332;10.230;2023-06-10T14:08:56;27.70;98.90
45765;DHT22;31474;45.332;10.230;2023-06-10T14:11:21;27.70;98.60
45765;DHT22;31474;45.332;10.230;2023-06-10T14:13:47;27.60;98.60
45765;DHT22;31474;45.332;10.230;2023-06-10T14:16:13;27.60;98.30
45765;DHT22;31474;45.332;10.230;2023-06-10T14:18:38;27.60;98.50
45765;DHT22;31474;45.332;10.230;2023-06-10T14:21:04;27.70;98.70
45765;DHT22;31474;45.332;10.230;2023-06-10T14:23:30;27.70;98.10
45765;DHT22;31474;45.332;10.230;2023-06-10T14:25:56;27.80;98.20
45765;DHT22;31474;45.332;10.230;2023-06-10T14:28:21;27.70;97.70
45765;DHT22;31474;45.332;10.230;2023-06-10T14:30:47;27.70;97.80
45765;DHT22;31474;45.332;10.230;2023-06-10T14:33:13;27.80;98.10
45765;DHT22;31474;45.332;10.230;2023-06-10T14:35:39;27.80;99.00
45765;DHT22;31474;45.332;10.230;2023-06-10T14:38:05;27.70;97.70
45765;DHT22;31474;45.332;10.230;2023-06-10T14:40:30;27.70;98.60
45765;DHT22;31474;45.332;10.230;2023-06-10T14:42:57;27.70;98.10
45765;DHT22;31474;45.332;10.230;2023-06-10T14:45:23;27.70;98.00
45765;DHT22;31474;45.332;10.230;2023-06-10T14:47:49;27.70;98.10
45765;DHT22;31474;45.332;10.230;2023-06-10T14:50:15;27.60;97.50
45765;DHT22;31474;45.332;10.230;2023-06-10T14:52:41;27.60;98.10
45765;DHT22;31474;45.332;10.230;2023-06-10T14:55:06;27.70;97.50
45765;DHT22;31474;45.332;10.230;2023-06-10T14:57:32;27.60;97.20
45765;DHT22;31474;45.332;10.230;2023-06-10T14:59:58;27.50;95.70
45765;DHT22;31474;45.332;10.230;2023-06-10T15:02:23;27.40;97.30
45765;DHT22;31474;45.332;10.230;2023-06-10T15:04:49;27.40;97.90
45765;DHT22;31474;45.332;10.230;2023-06-10T15:07:15;27.40;97.60
45765;DHT22;31474;45.332;10.230;2023-06-10T15:09:41;27.50;97.60
45765;DHT22;31474;45.332;10.230;2023-06-10T15:12:08;27.40;96.90
45765;DHT22;31474;45.332;10.230;2023-06-10T15:14:33;27.50;97.30
45765;DHT22;31474;45.332;10.230;2023-06-10T15:16:59;27.50;97.60
45765;DHT22;31474;45.332;10.230;2023-06-10T15:19:26;27.60;98.30
45765;DHT22;31474;45.332;10.230;2023-06-10T15:21:52;27.60;97.20
45765;DHT22;31474;45.332;10.230;2023-06-10T15:24:18;27.60;97.70
45765;DHT22;31474;45.332;10.230;2023-06-10T15:26:44;27.60;97.70
45765;DHT22;31474;45.332;10.230;2023-06-10T15:29:09;27.60;97.40
45765;DHT22;31474;45.332;10.230;2023-06-10T15:31:35;27.70;97.80
45765;DHT22;31474;45.332;10.230;2023-06-10T15:34:01;27.70;98.10
45765;DHT22;31474;45.332;10.230;2023-06-10T15:36:27;27.60;97.60
45765;DHT22;31474;45.332;10.230;2023-06-10T15:38:53;27.50;97.60
45765;DHT22;31474;45.332;10.230;2023-06-10T15:41:19;27.40;97.70